WetterOnline ( http://www.wetteronline.at )

Wetter aktuell Hamburg

Aktuelles Wetter: Hamburg/Fuhlsbüttel (15m)

6-stündlich | Neueste Meldungen
Ortszeit Temperatur Wetter
Di, 18.12. 13:00 6.9° C bewölkt
Di, 18.12. 7:00 5.5° C bewölkt
Di, 18.12. 1:00 4.9° C leichter Regen
Mo, 17.12. 19:00 2.6° C Sprühregen
Mo, 17.12. 13:00 2.0° C bedeckt
Mo, 17.12. 7:00 -0.0° C Dunst
Mo, 17.12. 1:00 -0.6° C leichter Schneefall
So, 16.12. 19:00 -0.3° C leichter Schneefall
Ortszeit Temperatur Wetter
Di, 18.12. 13:20 7° C bewölkt
Di, 18.12. 13:00 6.9° C bewölkt
Di, 18.12. 12:50 6.9° C -
Di, 18.12. 12:40 6.9° C -
Di, 18.12. 12:30 6.6° C -
Di, 18.12. 12:20 6.6° C -
Di, 18.12. 12:00 6.8° C bewölkt
Di, 18.12. 11:30 6.8° C -
Di, 18.12. 11:00 6.2° C bewölkt
Di, 18.12. 10:30 5.9° C -
Di, 18.12. 10:00 5.6° C bewölkt
Ortszeit Relative Feuchte Sichtweite
Di, 18.12. 13:00 85% 9 km
Di, 18.12. 7:00 91% 6 km
Di, 18.12. 1:00 94% 4.0 km
Mo, 17.12. 19:00 94% 3.5 km
Mo, 17.12. 13:00 94% 3.5 km
Mo, 17.12. 7:00 96% 1.8 km
Mo, 17.12. 1:00 91% 5.0 km
So, 16.12. 19:00 79% 8 km
Ortszeit Relative Feuchte Sichtweite
Di, 18.12. 13:20 81% 8 km
Di, 18.12. 13:00 85% 9 km
Di, 18.12. 12:50 85% -
Di, 18.12. 12:40 85% -
Di, 18.12. 12:30 87% 5.0 km
Di, 18.12. 12:20 87% -
Di, 18.12. 12:00 87% 9 km
Di, 18.12. 11:30 87% 6 km
Di, 18.12. 11:00 87% 9 km
Di, 18.12. 10:30 88% 5.0 km
Di, 18.12. 10:00 91% 8 km
Ortszeit Niederschlagsmenge Niederschlagsart
Di, 18.12. 13:00 0.0 l/m2 in 6 Std. -
Di, 18.12. 7:00 0.5 l/m2 in 12 Std. Regen
Di, 18.12. 1:00 0.1 l/m2 in 6 Std. Regen
Mo, 17.12. 19:00 0.1 l/m2 in 12 Std. Sprühregen
Mo, 17.12. 13:00 0.0 l/m2 in 6 Std. Nebel
Mo, 17.12. 7:00 0.1 l/m2 in 12 Std. Schnee
Mo, 17.12. 1:00 0.1 l/m2 in 6 Std. Schnee
So, 16.12. 19:00 0.1 l/m2 in 12 Std. Schnee
Ortszeit Niederschlagsmenge Niederschlagsart
Di, 18.12. 13:20 keine Meldung -
Di, 18.12. 13:00 0.0 l/m2 in 1 Std. -
Di, 18.12. 12:50 keine Meldung -
Di, 18.12. 12:40 keine Meldung -
Di, 18.12. 12:30 0.0 l/m2 in 1 Std. -
Di, 18.12. 12:20 keine Meldung -
Di, 18.12. 12:00 0.0 l/m2 in 1 Std. -
Di, 18.12. 11:30 0.0 l/m2 in 1 Std. -
Di, 18.12. 11:00 0.0 l/m2 in 1 Std. -
Di, 18.12. 10:30 0.0 l/m2 in 1 Std. -
Di, 18.12. 10:00 0.0 l/m2 in 1 Std. -
Ortszeit Stärke Spitze Richtung
km/h Bft. km/h Grad Sektor
Di, 18.12. 13:00 13 3 22 190° S
Di, 18.12. 7:00 11 2 29 230° SW
Di, 18.12. 1:00 7 2 25 170° S
Mo, 17.12. 19:00 13 3 26 130° SO
Mo, 17.12. 13:00 13 3 20 130° SO
Mo, 17.12. 7:00 9 2 15 160° S
Mo, 17.12. 1:00 11 2 25 150° SO
So, 16.12. 19:00 13 3 35 140° SO
Ortszeit Stärke Spitze Richtung
km/h Bft. km/h Grad Sektor
Di, 18.12. 13:20 15 3 - 170° S
Di, 18.12. 13:00 13 3 22 190° S
Di, 18.12. 12:50 13 3 - 190° S
Di, 18.12. 12:40 11 2 - 170° S
Di, 18.12. 12:30 11 2 17 170° S
Di, 18.12. 12:20 11 2 - 170° S
Di, 18.12. 12:00 13 3 19 180° S
Di, 18.12. 11:30 11 2 18 210° SW
Di, 18.12. 11:00 11 2 14 200° S
Di, 18.12. 10:30 7 2 13 210° SW
Di, 18.12. 10:00 7 2 14 230° SW
Ortszeit Untergrenze Bedeckung Gattung
total tief tief mittel hoch
Di, 18.12. 13:00 300 m 7/8 7/8 Cu - -
Di, 18.12. 7:00 210 m 7/8 7/8 Sc - -
Di, 18.12. 1:00 180 m 8/8 8/8 St - -
Mo, 17.12. 19:00 150 m 8/8 8/8 St - -
Mo, 17.12. 13:00 120 m 8/8 7/8 St - -
Mo, 17.12. 7:00 60 m 8/8 8/8 St - -
Mo, 17.12. 1:00 150 m 8/8 8/8 St - -
So, 16.12. 19:00 480 m 8/8 7/8 Sc - -
Ortszeit Bedeckungsgrad in Achtel und Wolkenuntergrenze
Di, 18.12. 13:20 3-4(330m) 5-7(780m)
Di, 18.12. 13:00 5(300m) 7(780m)
Di, 18.12. 12:50 -
Di, 18.12. 12:40 -
Di, 18.12. 12:30 -
Di, 18.12. 12:20 -
Di, 18.12. 12:00 5(300m) 7(720m)
Di, 18.12. 11:30 -
Di, 18.12. 11:00 2(270m) 7(660m)
Di, 18.12. 10:30 -
Di, 18.12. 10:00 1(240m) 7(450m)
Ortszeit Luftdruck NN (hPa) Tendenz (hPa in 3 Std.)
Di, 18.12. 13:00 1023 - 1,4
Di, 18.12. 7:00 1023 + 0,8
Di, 18.12. 1:00 1022 + 0,2
Mo, 17.12. 19:00 1021 + 1,4
Mo, 17.12. 13:00 1019 + 0,1
Mo, 17.12. 7:00 1017 + 1,6
Mo, 17.12. 1:00 1015 + 0,9
So, 16.12. 19:00 1013 + 0,6
Ortszeit Luftdruck NN (hPa) Tendenz (hPa in 3 Std.)
Di, 18.12. 13:20 1022 keine Meldung
Di, 18.12. 13:00 1023 - 1,4
Di, 18.12. 12:50 1023 keine Meldung
Di, 18.12. 12:40 1023 keine Meldung
Di, 18.12. 12:30 1023 - 1,0
Di, 18.12. 12:20 1023 keine Meldung
Di, 18.12. 12:00 1023 - 0,7
Di, 18.12. 11:30 1023 - 0,2
Di, 18.12. 11:00 1024 + 0,3
Di, 18.12. 10:30 1024 + 0,9
Di, 18.12. 10:00 1024 + 1,0
Ortszeit Schneehöhe (cm)
Di, 18.12. 13:00 0
Di, 18.12. 7:00 0
Di, 18.12. 1:00 0
Mo, 17.12. 19:00 0
Mo, 17.12. 13:00 0
Mo, 17.12. 7:00 1
Mo, 17.12. 1:00 1
So, 16.12. 19:00 0
Ortszeit Schneehöhe (cm)
Di, 18.12. 13:20 -
Di, 18.12. 13:00 0
Di, 18.12. 12:50 -
Di, 18.12. 12:40 -
Di, 18.12. 12:30 -
Di, 18.12. 12:20 -
Di, 18.12. 12:00 -
Di, 18.12. 11:30 -
Di, 18.12. 11:00 -
Di, 18.12. 10:30 -
Di, 18.12. 10:00 -
Link zu dieser Seite / Seite empfehlen

Das Wetter in ...